createdAt,value
2018-06-10T00:00:59.005Z,63.60
2018-06-10T00:03:27.437Z,63.60
2018-06-10T00:05:55.917Z,64.00
2018-06-10T00:08:24.377Z,63.70
2018-06-10T00:10:52.833Z,63.60
2018-06-10T00:13:21.389Z,63.70
2018-06-10T00:15:49.916Z,64.10
2018-06-10T00:20:46.678Z,63.90
2018-06-10T00:23:15.133Z,63.90
2018-06-10T00:25:43.595Z,64.10
2018-06-10T00:28:12.045Z,63.90
2018-06-10T00:30:40.495Z,64.20
2018-06-10T00:33:09.008Z,64.50
2018-06-10T00:35:37.513Z,64.40
2018-06-10T00:38:06.068Z,64.10
2018-06-10T00:40:34.473Z,64.00
2018-06-10T00:43:03.619Z,63.80
2018-06-10T00:45:32.173Z,63.90
2018-06-10T00:48:00.624Z,64.00
2018-06-10T00:50:29.037Z,64.10
2018-06-10T00:52:57.506Z,64.40
2018-06-10T00:55:25.969Z,64.30
2018-06-10T00:57:54.431Z,64.20
2018-06-10T01:00:22.853Z,64.40
2018-06-10T01:02:51.298Z,64.40
2018-06-10T01:05:19.776Z,64.20
2018-06-10T01:07:48.209Z,64.10
2018-06-10T01:10:16.684Z,64.20
2018-06-10T01:12:45.149Z,64.50
2018-06-10T01:15:13.599Z,64.50
2018-06-10T01:17:42.648Z,64.20
2018-06-10T01:20:11.153Z,64.40
2018-06-10T01:22:39.929Z,64.30
2018-06-10T01:25:08.361Z,64.30
2018-06-10T01:27:36.799Z,64.20
2018-06-10T01:30:05.324Z,64.10
2018-06-10T01:32:33.827Z,64.20
2018-06-10T01:35:02.345Z,64.30
2018-06-10T01:39:58.980Z,64.00
2018-06-10T01:42:28.026Z,64.20
2018-06-10T01:44:56.545Z,64.20
2018-06-10T01:47:25.796Z,64.20
2018-06-10T01:49:54.262Z,64.60
2018-06-10T01:52:22.667Z,64.60
2018-06-10T01:54:51.125Z,64.50
2018-06-10T01:57:19.681Z,64.30
2018-06-10T01:59:48.156Z,64.50
2018-06-10T02:02:16.614Z,64.30
2018-06-10T02:04:45.094Z,64.20
2018-06-10T02:07:13.545Z,64.30
2018-06-10T02:09:42.037Z,64.30
2018-06-10T02:12:10.445Z,64.10
2018-06-10T02:14:38.902Z,64.40
2018-06-10T02:17:07.382Z,64.60
2018-06-10T02:19:36.016Z,64.40
2018-06-10T02:22:04.508Z,64.40
2018-06-10T02:24:32.957Z,64.40
2018-06-10T02:27:01.416Z,64.80
2018-06-10T02:29:29.848Z,64.90
2018-06-10T02:31:58.373Z,64.80
2018-06-10T02:34:26.886Z,64.80
2018-06-10T02:36:55.389Z,64.50
2018-06-10T02:39:23.845Z,64.40
2018-06-10T02:41:52.301Z,64.60
2018-06-10T02:44:20.753Z,64.80
2018-06-10T02:46:49.200Z,64.80
2018-06-10T02:49:17.665Z,64.80
2018-06-10T02:51:46.488Z,64.60
2018-06-10T02:54:14.957Z,64.60
2018-06-10T02:56:43.357Z,64.80
2018-06-10T02:59:11.825Z,64.90
2018-06-10T03:01:40.275Z,64.80
2018-06-10T03:04:08.736Z,64.70
2018-06-10T03:06:37.300Z,64.40
2018-06-10T03:09:07.193Z,64.40
2018-06-10T03:11:35.634Z,64.50
2018-06-10T03:14:04.138Z,64.70
2018-06-10T03:16:32.579Z,65.00
2018-06-10T03:26:01.235Z,64.40
2018-06-10T03:28:29.707Z,64.40
2018-06-10T03:30:58.314Z,64.50
2018-06-10T03:33:26.752Z,64.80
2018-06-10T03:35:55.277Z,65.20
2018-06-10T03:38:23.949Z,65.30
2018-06-10T03:40:52.426Z,65.60
2018-06-10T03:43:21.505Z,65.80
2018-06-10T03:45:50.009Z,65.70
2018-06-10T03:48:18.457Z,65.80
2018-06-10T03:50:46.942Z,66.10
2018-06-10T03:53:15.388Z,66.10
2018-06-10T03:55:43.828Z,66.30
2018-06-10T03:58:12.245Z,66.40
2018-06-10T04:00:40.756Z,66.30
2018-06-10T04:03:09.212Z,66.20
2018-06-10T04:05:37.729Z,66.40
2018-06-10T04:08:06.206Z,66.40
2018-06-10T04:10:34.684Z,66.10
2018-06-10T04:13:03.385Z,66.10
2018-06-10T04:18:00.068Z,66.10
2018-06-10T04:20:28.488Z,66.40
2018-06-10T04:22:56.962Z,66.60
2018-06-10T04:25:25.553Z,66.50
2018-06-10T04:27:54.149Z,66.40
2018-06-10T04:30:22.588Z,66.00
2018-06-10T04:32:51.034Z,66.10
2018-06-10T04:35:19.474Z,65.90
2018-06-10T04:37:48.079Z,65.30
2018-06-10T04:40:16.512Z,64.90
2018-06-10T04:42:45.017Z,65.20
2018-06-10T04:45:13.449Z,65.90
2018-06-10T04:47:41.975Z,65.90
2018-06-10T04:50:10.444Z,65.70
2018-06-10T04:52:38.881Z,65.20
2018-06-10T04:57:35.497Z,64.60
2018-06-10T05:00:04.128Z,64.50
2018-06-10T05:02:32.543Z,64.70
2018-06-10T05:05:00.996Z,64.50
2018-06-10T05:07:30.162Z,64.70
2018-06-10T05:09:58.620Z,64.60
2018-06-10T05:12:27.066Z,65.00
2018-06-10T05:14:55.529Z,64.90
2018-06-10T05:17:23.954Z,65.30
2018-06-10T05:19:52.674Z,65.90
2018-06-10T05:22:21.071Z,65.70
2018-06-10T05:24:49.487Z,65.80
2018-06-10T05:27:17.930Z,66.30
2018-06-10T05:29:46.386Z,67.20
2018-06-10T05:32:14.818Z,68.50
2018-06-10T05:34:43.329Z,67.90
2018-06-10T05:37:12.509Z,68.00
2018-06-10T05:39:40.945Z,67.80
2018-06-10T05:42:10.142Z,68.50
2018-06-10T05:44:38.619Z,68.80
2018-06-10T05:47:07.228Z,68.20
2018-06-10T05:49:35.673Z,67.80
2018-06-10T05:52:04.343Z,67.90
2018-06-10T05:54:32.765Z,68.00
2018-06-10T05:57:01.382Z,67.60
2018-06-10T05:59:29.809Z,67.00
2018-06-10T06:01:58.225Z,67.10
2018-06-10T06:04:26.685Z,66.50
2018-06-10T06:06:55.114Z,66.50
2018-06-10T06:09:23.651Z,66.70
2018-06-10T06:11:52.181Z,66.20
2018-06-10T06:14:20.807Z,65.40
2018-06-10T06:16:49.340Z,65.50
2018-06-10T06:19:17.793Z,65.20
2018-06-10T06:21:46.259Z,64.70
2018-06-10T06:24:14.718Z,65.30
2018-06-10T06:26:43.197Z,65.00
2018-06-10T06:29:11.612Z,63.80
2018-06-10T06:31:40.105Z,64.80
2018-06-10T06:34:08.584Z,64.40
2018-06-10T06:36:37.097Z,64.20
2018-06-10T06:39:07.556Z,63.40
2018-06-10T06:41:36.002Z,62.20
2018-06-10T06:44:04.453Z,62.60
2018-06-10T06:46:32.968Z,61.20
2018-06-10T06:49:01.454Z,61.40
2018-06-10T06:51:29.863Z,61.20
2018-06-10T06:53:58.296Z,60.70
2018-06-10T06:56:26.765Z,60.80
2018-06-10T06:58:55.322Z,60.70
2018-06-10T07:01:23.789Z,61.60
2018-06-10T07:03:52.321Z,61.40
2018-06-10T07:06:20.884Z,60.70
2018-06-10T07:08:49.321Z,60.70
2018-06-10T07:11:17.945Z,61.10
2018-06-10T07:13:46.375Z,60.50
2018-06-10T07:16:14.844Z,61.00
2018-06-10T07:18:43.345Z,60.20
2018-06-10T07:21:11.754Z,59.10
2018-06-10T07:23:40.283Z,58.30
2018-06-10T07:26:08.695Z,59.20
2018-06-10T07:28:37.407Z,58.20
2018-06-10T07:31:05.830Z,57.70
2018-06-10T07:33:34.370Z,58.50
2018-06-10T07:36:02.834Z,58.50
2018-06-10T07:38:31.325Z,58.50
2018-06-10T07:40:59.814Z,60.10
2018-06-10T07:43:28.385Z,59.30
2018-06-10T07:45:56.884Z,59.40
2018-06-10T07:48:25.414Z,58.60
2018-06-10T07:50:53.824Z,58.10
2018-06-10T07:53:22.318Z,59.20
2018-06-10T07:55:50.826Z,57.40
2018-06-10T07:58:19.399Z,58.30
2018-06-10T08:00:47.973Z,60.00
2018-06-10T08:03:16.410Z,59.50
2018-06-10T08:05:44.902Z,59.80
2018-06-10T08:08:13.423Z,57.90
2018-06-10T08:10:41.917Z,60.10
2018-06-10T08:13:10.424Z,59.40
2018-06-10T08:15:38.948Z,59.90
2018-06-10T08:18:07.412Z,57.60
2018-06-10T08:20:35.882Z,57.40
2018-06-10T08:23:04.862Z,58.60
2018-06-10T08:25:33.333Z,56.90
2018-06-10T08:28:01.781Z,56.30
2018-06-10T08:30:30.921Z,56.10
2018-06-10T08:32:59.349Z,57.80
2018-06-10T08:35:27.845Z,58.00
2018-06-10T08:37:56.340Z,57.50
2018-06-10T08:40:24.875Z,53.90
2018-06-10T08:42:53.493Z,53.10
2018-06-10T08:45:22.135Z,53.40
2018-06-10T08:47:50.654Z,56.60
2018-06-10T08:50:19.334Z,56.50
2018-06-10T08:52:47.944Z,55.00
2018-06-10T08:55:16.511Z,56.20
2018-06-10T08:57:45.054Z,56.30
2018-06-10T09:00:13.495Z,56.60
2018-06-10T09:02:42.029Z,56.20
2018-06-10T09:05:10.717Z,55.40
2018-06-10T09:07:39.185Z,57.60
2018-06-10T09:10:07.683Z,56.30
2018-06-10T09:12:36.216Z,55.20
2018-06-10T09:15:04.758Z,56.90
2018-06-10T09:17:33.252Z,56.00
2018-06-10T09:20:02.313Z,55.20
2018-06-10T09:22:30.779Z,56.70
2018-06-10T09:24:59.252Z,55.90
2018-06-10T09:27:27.712Z,55.10
2018-06-10T09:29:56.241Z,53.80
2018-06-10T09:32:24.777Z,53.80
2018-06-10T09:34:53.241Z,55.20
2018-06-10T09:37:21.788Z,54.20
2018-06-10T09:39:50.280Z,55.90
2018-06-10T09:42:18.732Z,54.40
2018-06-10T09:44:47.222Z,53.70
2018-06-10T09:47:15.710Z,55.80
2018-06-10T09:52:12.945Z,57.10
2018-06-10T09:54:41.473Z,52.30
2018-06-10T09:57:09.920Z,54.80
2018-06-10T09:59:38.472Z,55.30
2018-06-10T10:02:07.267Z,54.10
2018-06-10T10:04:36.285Z,55.00
2018-06-10T10:07:04.775Z,54.10
2018-06-10T10:09:33.224Z,54.50
2018-06-10T10:12:01.774Z,54.80
2018-06-10T10:14:30.345Z,55.00
2018-06-10T10:16:58.731Z,55.40
2018-06-10T10:19:28.129Z,53.30
2018-06-10T10:21:56.607Z,53.30
2018-06-10T10:26:53.294Z,53.90
2018-06-10T10:29:21.710Z,52.00
2018-06-10T10:31:50.168Z,50.70
2018-06-10T10:34:18.629Z,49.50
2018-06-10T10:36:47.365Z,49.30
2018-06-10T10:39:15.884Z,49.50
2018-06-10T10:41:44.333Z,46.70
2018-06-10T10:44:13.429Z,46.70
2018-06-10T10:46:41.857Z,46.30
2018-06-10T10:49:10.301Z,47.70
2018-06-10T10:51:38.841Z,47.50
2018-06-10T10:54:07.444Z,48.40
2018-06-10T10:56:35.893Z,47.70
2018-06-10T10:59:04.425Z,49.30
2018-06-10T11:01:32.948Z,50.20
2018-06-10T11:04:01.501Z,50.50
2018-06-10T11:06:29.996Z,51.00
2018-06-10T11:08:58.476Z,52.30
2018-06-10T11:11:26.913Z,51.40
2018-06-10T11:13:55.466Z,51.00
2018-06-10T11:16:24.072Z,51.20
2018-06-10T11:18:52.610Z,51.80
2018-06-10T11:21:21.709Z,52.50
2018-06-10T11:23:50.167Z,52.50
2018-06-10T11:26:18.617Z,52.80
2018-06-10T11:28:47.085Z,53.00
2018-06-10T11:31:16.311Z,52.40
2018-06-10T11:33:44.784Z,50.80
2018-06-10T11:36:13.315Z,50.40
2018-06-10T11:38:41.827Z,51.00
2018-06-10T11:41:10.338Z,50.60
2018-06-10T11:43:38.872Z,52.30
2018-06-10T11:46:08.139Z,51.90
2018-06-10T11:48:36.597Z,52.60
2018-06-10T11:51:05.224Z,52.20
2018-06-10T11:53:33.729Z,51.20
2018-06-10T11:56:02.238Z,51.00
2018-06-10T11:58:30.720Z,51.00
2018-06-10T12:00:59.271Z,50.40
2018-06-10T12:03:27.745Z,48.70
2018-06-10T12:05:56.253Z,49.90
2018-06-10T12:08:24.946Z,49.30
2018-06-10T12:10:53.558Z,48.70
2018-06-10T12:13:21.949Z,48.10
2018-06-10T12:15:50.411Z,47.50
2018-06-10T12:18:18.946Z,48.20
2018-06-10T12:20:47.414Z,48.20
2018-06-10T12:25:44.113Z,49.90
2018-06-10T12:28:12.689Z,49.70
2018-06-10T12:30:41.334Z,50.20
2018-06-10T12:33:09.796Z,49.20
2018-06-10T12:35:41.300Z,49.50
2018-06-10T12:38:09.777Z,50.00
2018-06-10T12:40:38.276Z,49.10
2018-06-10T12:43:06.744Z,49.40
2018-06-10T12:45:35.884Z,49.00
2018-06-10T12:48:04.461Z,49.50
2018-06-10T12:50:32.937Z,49.80
2018-06-10T12:53:01.506Z,49.20
2018-06-10T12:55:30.232Z,49.90
2018-06-10T12:57:58.864Z,50.20
2018-06-10T13:00:27.382Z,50.20
2018-06-10T13:02:55.933Z,49.30
2018-06-10T13:05:24.925Z,50.30
2018-06-10T13:07:54.040Z,49.50
2018-06-10T13:10:22.507Z,49.80
2018-06-10T13:12:50.976Z,48.50
2018-06-10T13:15:19.448Z,48.80
2018-06-10T13:17:47.930Z,49.70
2018-06-10T13:20:16.465Z,49.20
2018-06-10T13:22:44.932Z,49.60
2018-06-10T13:25:13.450Z,50.30
2018-06-10T13:27:42.695Z,50.40
2018-06-10T13:30:11.248Z,50.80
2018-06-10T13:32:39.685Z,49.30
2018-06-10T13:35:08.237Z,49.60
2018-06-10T13:37:36.737Z,49.90
2018-06-10T13:40:05.206Z,49.40
2018-06-10T13:42:33.787Z,49.70
2018-06-10T13:45:02.263Z,49.10
2018-06-10T13:47:30.676Z,49.00
2018-06-10T13:49:59.219Z,49.10
2018-06-10T13:52:27.763Z,49.30
2018-06-10T13:54:56.227Z,48.90
2018-06-10T13:57:25.533Z,49.20
2018-06-10T13:59:53.988Z,48.80
2018-06-10T14:02:22.525Z,48.90
2018-06-10T14:04:50.961Z,50.40
2018-06-10T14:07:19.397Z,51.50
2018-06-10T14:12:15.968Z,51.30
2018-06-10T14:14:44.436Z,50.30
2018-06-10T14:17:12.914Z,50.80
2018-06-10T14:19:41.384Z,50.90
2018-06-10T14:22:09.817Z,50.80
2018-06-10T14:24:38.284Z,51.40
2018-06-10T14:27:06.718Z,51.00
2018-06-10T14:29:35.170Z,51.90
2018-06-10T14:32:03.797Z,52.40
2018-06-10T14:34:32.484Z,52.50
2018-06-10T14:37:01.450Z,52.50
2018-06-10T14:39:29.908Z,52.80
2018-06-10T14:41:58.348Z,52.70
2018-06-10T14:44:26.814Z,52.50
2018-06-10T14:46:55.330Z,52.50
2018-06-10T14:49:23.934Z,52.80
2018-06-10T14:51:52.434Z,52.90
2018-06-10T14:54:20.901Z,52.70
2018-06-10T14:56:55.061Z,53.10
2018-06-10T14:59:23.615Z,53.20
2018-06-10T15:01:52.147Z,53.10
2018-06-10T15:04:20.776Z,53.20
2018-06-10T15:06:49.278Z,53.20
2018-06-10T15:09:17.789Z,53.50
2018-06-10T15:11:46.334Z,53.30
2018-06-10T15:14:14.861Z,52.60
2018-06-10T15:16:43.414Z,52.40
2018-06-10T15:19:11.892Z,51.30
2018-06-10T15:21:40.690Z,50.10
2018-06-10T15:24:09.498Z,48.90
2018-06-10T15:26:38.000Z,47.70
2018-06-10T15:29:06.541Z,47.10
2018-06-10T15:31:35.109Z,46.30
2018-06-10T15:34:03.612Z,45.60
2018-06-10T15:36:32.090Z,47.40
2018-06-10T15:39:00.645Z,46.50
2018-06-10T15:41:29.156Z,46.70
2018-06-10T15:43:57.590Z,45.90
2018-06-10T15:46:26.076Z,47.00
2018-06-10T15:48:54.609Z,45.40
2018-06-10T15:51:23.077Z,46.50
2018-06-10T15:53:51.592Z,47.70
2018-06-10T15:56:20.013Z,49.90
2018-06-10T15:58:48.540Z,49.60
2018-06-10T16:01:17.606Z,51.80
2018-06-10T16:03:46.024Z,51.60
2018-06-10T16:06:14.569Z,51.00
2018-06-10T16:08:43.151Z,49.90
2018-06-10T16:11:11.658Z,52.40
2018-06-10T16:13:40.125Z,53.30
2018-06-10T16:16:08.565Z,54.20
2018-06-10T16:18:37.057Z,54.50
2018-06-10T16:21:05.469Z,52.80
2018-06-10T16:23:33.906Z,54.10
2018-06-10T16:26:02.379Z,53.70
2018-06-10T16:28:30.845Z,55.40
2018-06-10T16:30:59.896Z,55.10
2018-06-10T16:33:28.392Z,55.20
2018-06-10T16:35:57.012Z,54.10
2018-06-10T16:38:26.195Z,54.80
2018-06-10T16:40:54.654Z,55.60
2018-06-10T16:43:23.105Z,56.30
2018-06-10T16:45:51.609Z,54.60
2018-06-10T16:48:20.066Z,53.80
2018-06-10T16:50:49.429Z,53.80
2018-06-10T16:53:17.976Z,55.30
2018-06-10T16:55:46.484Z,54.50
2018-06-10T16:58:15.540Z,54.20
2018-06-10T17:00:44.979Z,54.30
2018-06-10T17:03:14.314Z,54.30
2018-06-10T17:05:42.853Z,55.60
2018-06-10T17:08:11.794Z,56.20
2018-06-10T17:10:40.295Z,57.20
2018-06-10T17:13:08.733Z,56.60
2018-06-10T17:18:05.612Z,57.50
2018-06-10T17:20:34.069Z,57.90
2018-06-10T17:23:02.526Z,58.60
2018-06-10T17:25:31.166Z,59.20
2018-06-10T17:27:59.673Z,59.60
2018-06-10T17:30:28.162Z,59.80
2018-06-10T17:32:56.693Z,60.00
2018-06-10T17:35:25.192Z,60.00
2018-06-10T17:37:53.770Z,60.20
2018-06-10T17:40:22.217Z,60.40
2018-06-10T17:42:50.732Z,60.40
2018-06-10T17:45:19.246Z,60.30
2018-06-10T17:47:47.741Z,60.20
2018-06-10T17:50:16.279Z,59.00
2018-06-10T17:52:44.785Z,58.60
2018-06-10T17:55:13.267Z,59.60
2018-06-10T17:57:42.405Z,59.20
2018-06-10T18:00:11.438Z,59.70
2018-06-10T18:02:39.937Z,59.50
2018-06-10T18:05:08.418Z,59.20
2018-06-10T18:07:37.028Z,59.10
2018-06-10T18:10:05.620Z,59.90
2018-06-10T18:12:34.107Z,60.10
2018-06-10T18:15:02.726Z,60.40
2018-06-10T18:17:31.234Z,60.50
2018-06-10T18:19:59.829Z,60.60
2018-06-10T18:22:28.386Z,60.40
2018-06-10T18:24:56.869Z,60.50
2018-06-10T18:27:26.060Z,60.20
2018-06-10T18:29:54.553Z,60.20
2018-06-10T18:32:23.128Z,60.20
2018-06-10T18:34:51.621Z,60.40
2018-06-10T18:37:20.195Z,60.50
2018-06-10T18:39:48.637Z,60.60
2018-06-10T18:42:17.250Z,60.80
2018-06-10T18:44:45.686Z,61.00
2018-06-10T18:47:14.148Z,61.00
2018-06-10T18:49:43.266Z,61.10
2018-06-10T18:52:11.743Z,61.20
2018-06-10T18:54:40.290Z,61.20
2018-06-10T18:57:08.812Z,61.40
2018-06-10T18:59:37.356Z,61.50
2018-06-10T19:02:06.753Z,61.50
2018-06-10T19:04:35.256Z,61.50
2018-06-10T19:07:03.917Z,61.50
2018-06-10T19:09:32.395Z,61.50
2018-06-10T19:12:00.842Z,61.70
2018-06-10T19:14:29.366Z,61.80
2018-06-10T19:16:57.852Z,62.00
2018-06-10T19:19:26.277Z,62.00
2018-06-10T19:21:54.855Z,61.70
2018-06-10T19:24:23.869Z,61.80
2018-06-10T19:26:52.321Z,62.20
2018-06-10T19:29:20.795Z,62.20
2018-06-10T19:31:49.236Z,62.20
2018-06-10T19:34:18.404Z,62.20
2018-06-10T19:36:46.986Z,62.30
2018-06-10T19:39:15.497Z,62.40
2018-06-10T19:41:43.935Z,62.40
2018-06-10T19:44:12.623Z,62.50
2018-06-10T19:46:41.053Z,62.60
2018-06-10T19:49:09.541Z,62.30
2018-06-10T19:51:38.002Z,62.30
2018-06-10T19:54:06.500Z,62.50
2018-06-10T19:56:34.991Z,62.50
2018-06-10T19:59:04.115Z,62.50
2018-06-10T20:01:33.221Z,62.60
2018-06-10T20:04:01.685Z,62.60
2018-06-10T20:06:30.239Z,62.70
2018-06-10T20:08:58.770Z,62.80
2018-06-10T20:11:27.254Z,62.60
2018-06-10T20:13:55.707Z,62.70
2018-06-10T20:16:24.229Z,62.60
2018-06-10T20:18:52.668Z,62.60
2018-06-10T20:21:21.201Z,62.70
2018-06-10T20:23:49.637Z,62.70
2018-06-10T20:26:18.121Z,62.80
2018-06-10T20:28:46.627Z,63.10
2018-06-10T20:31:15.155Z,63.40
2018-06-10T20:33:43.620Z,63.40
2018-06-10T20:36:12.082Z,63.40
2018-06-10T20:38:40.514Z,63.40
2018-06-10T20:41:08.977Z,63.30
2018-06-10T20:43:37.449Z,63.40
2018-06-10T20:46:05.926Z,63.30
2018-06-10T20:48:34.510Z,63.30
2018-06-10T20:51:03.694Z,63.40
2018-06-10T20:53:32.190Z,63.60
2018-06-10T20:56:01.564Z,63.80
2018-06-10T20:58:30.038Z,63.80
2018-06-10T21:00:58.466Z,63.80
2018-06-10T21:03:26.955Z,64.20
2018-06-10T21:05:55.487Z,64.30
2018-06-10T21:08:24.530Z,64.00
2018-06-10T21:10:52.963Z,63.80
2018-06-10T21:13:21.926Z,63.90
2018-06-10T21:15:50.390Z,63.80
2018-06-10T21:18:19.090Z,63.90
2018-06-10T21:20:47.733Z,63.90
2018-06-10T21:23:16.195Z,63.80
2018-06-10T21:25:44.666Z,63.50
2018-06-10T21:28:13.126Z,63.50
2018-06-10T21:30:41.601Z,63.50
2018-06-10T21:33:10.068Z,63.60
2018-06-10T21:35:38.629Z,63.90
2018-06-10T21:38:07.695Z,64.00
2018-06-10T21:40:36.841Z,63.90
2018-06-10T21:43:05.283Z,63.70
2018-06-10T21:45:33.939Z,63.50
2018-06-10T21:48:02.406Z,63.50
2018-06-10T21:50:30.876Z,63.50
2018-06-10T21:52:59.308Z,63.30
2018-06-10T21:55:27.804Z,63.50
2018-06-10T21:57:56.257Z,63.30
2018-06-10T22:00:26.442Z,63.50
2018-06-10T22:02:55.020Z,63.40
2018-06-10T22:05:23.630Z,63.60
2018-06-10T22:07:52.170Z,63.60
2018-06-10T22:10:20.669Z,64.00
2018-06-10T22:12:49.121Z,63.80
2018-06-10T22:15:17.562Z,63.80
2018-06-10T22:17:45.963Z,63.70
2018-06-10T22:20:14.398Z,63.80
2018-06-10T22:22:42.861Z,64.00
2018-06-10T22:25:11.388Z,64.40
2018-06-10T22:30:07.981Z,64.00
2018-06-10T22:32:36.393Z,63.70
2018-06-10T22:35:05.014Z,63.60
2018-06-10T22:37:33.502Z,63.40
2018-06-10T22:40:01.942Z,63.50
2018-06-10T22:42:30.648Z,63.60
2018-06-10T22:44:59.135Z,64.00
2018-06-10T22:47:27.658Z,64.20
2018-06-10T22:49:56.144Z,64.10
2018-06-10T22:52:24.604Z,64.00
2018-06-10T22:54:53.132Z,63.70
2018-06-10T22:57:21.590Z,63.40
2018-06-10T22:59:50.016Z,63.80
2018-06-10T23:02:18.492Z,64.20
2018-06-10T23:07:15.149Z,64.90
2018-06-10T23:09:43.569Z,65.00
2018-06-10T23:12:12.026Z,65.00
2018-06-10T23:14:40.537Z,64.80
2018-06-10T23:17:09.066Z,64.60
2018-06-10T23:19:37.565Z,64.50
2018-06-10T23:22:06.565Z,64.30
2018-06-10T23:24:35.017Z,64.40
2018-06-10T23:27:03.455Z,64.30
2018-06-10T23:29:31.905Z,64.30
2018-06-10T23:32:00.456Z,64.60
2018-06-10T23:34:28.914Z,64.80
2018-06-10T23:36:57.456Z,64.70
2018-06-10T23:39:26.053Z,64.60
2018-06-10T23:41:54.575Z,64.80
2018-06-10T23:44:23.034Z,65.00
2018-06-10T23:46:51.687Z,64.90
2018-06-10T23:49:20.206Z,65.00
2018-06-10T23:51:48.735Z,64.40
2018-06-10T23:54:17.209Z,64.10
2018-06-10T23:56:45.733Z,64.00
2018-06-10T23:59:14.258Z,64.10
